Time;durP1;ratioP1;P1;durP2;ratioP2;P2;SDS_P1;SDS_P2;PMS_P1;PMS_P2;Temp;Humidity;BMP_temperature;BMP_pressure;BME280_temperature;BME280_humidity;BME280_pressure;Samples;Min_cycle;Max_cycle;Signal;HPM_P1;HPM_P2
2022/06/07 00:00:17;;;;;;;4.63;4.33;;;17.70;99.90;;;;;;5052948;28;20538;-64
2022/06/07 00:02:43;;;;;;;5.97;5.50;;;17.80;99.90;;;;;;5053144;28;20846;-64
2022/06/07 00:05:10;;;;;;;5.30;4.93;;;17.80;99.90;;;;;;5053061;28;20444;-64
2022/06/07 00:07:37;;;;;;;5.13;4.83;;;17.80;99.90;;;;;;5053071;28;20460;-64
2022/06/07 00:10:04;;;;;;;5.50;5.20;;;17.70;99.90;;;;;;5052851;28;20491;-64
2022/06/07 00:12:32;;;;;;;5.20;4.80;;;17.70;99.90;;;;;;5052873;28;20455;-64
2022/06/07 00:14:59;;;;;;;5.27;4.87;;;17.70;99.90;;;;;;5053021;28;20451;-64
2022/06/07 00:17:26;;;;;;;5.90;5.47;;;17.60;99.90;;;;;;5053221;28;20448;-64
2022/06/07 00:19:52;;;;;;;5.23;4.77;;;17.50;99.90;;;;;;5052940;28;20475;-64
2022/06/07 00:22:19;;;;;;;6.13;5.53;;;17.40;99.90;;;;;;5053046;28;20452;-64
2022/06/07 00:24:46;;;;;;;5.77;5.43;;;17.30;99.90;;;;;;5052801;28;20892;-63
2022/06/07 00:27:13;;;;;;;5.73;5.33;;;17.10;99.90;;;;;;5052687;28;20556;-64
2022/06/07 00:29:42;;;;;;;5.63;5.30;;;17.10;99.90;;;;;;5052845;28;20476;-64
2022/06/07 00:32:09;;;;;;;5.70;5.30;;;17.20;99.90;;;;;;5052646;28;20479;-64
2022/06/07 00:34:36;;;;;;;5.47;5.07;;;17.30;99.90;;;;;;5052736;28;20444;-64
2022/06/07 00:37:02;;;;;;;5.10;4.70;;;17.40;99.90;;;;;;5052785;28;20444;-64
2022/06/07 00:39:29;;;;;;;5.53;5.13;;;17.40;99.90;;;;;;5052580;28;20932;-64
2022/06/07 00:41:55;;;;;;;5.93;5.40;;;17.40;99.90;;;;;;5052525;28;20823;-64
2022/06/07 00:44:30;;;;;;;6.77;6.17;;;16.80;99.90;;;;;;5052656;28;20474;-64
2022/06/07 00:47:02;;;;;;;5.23;4.93;;;16.40;99.90;;;;;;5052695;28;20879;-64
2022/06/07 00:49:32;;;;;;;5.20;4.90;;;16.60;99.90;;;;;;5052617;28;20502;-63
2022/06/07 00:51:59;;;;;;;6.17;5.57;;;16.70;99.90;;;;;;5052565;28;20873;-64
2022/06/07 00:54:28;;;;;;;6.53;6.03;;;16.70;99.90;;;;;;5052881;28;20455;-63
2022/06/07 00:56:55;;;;;;;5.97;5.47;;;16.40;99.90;;;;;;5056533;28;20456;-64
2022/06/07 00:59:22;;;;;;;5.67;5.37;;;16.50;99.90;;;;;;5056465;28;20460;-63
2022/06/07 01:01:50;;;;;;;5.90;5.40;;;16.50;99.90;;;;;;5056430;28;20448;-63
2022/06/07 01:04:18;;;;;;;5.80;5.40;;;16.60;99.90;;;;;;5056326;28;20444;-64
2022/06/07 01:12:14;;;;;;;5.73;5.27;;;16.40;99.90;;;;;;5056116;28;20444;-63
2022/06/07 01:14:40;;;;;;;6.70;6.30;;;16.50;99.90;;;;;;5056128;28;20448;-63
2022/06/07 01:17:06;;;;;;;5.27;4.87;;;16.50;99.90;;;;;;5056242;28;20448;-63
2022/06/07 01:19:34;;;;;;;6.40;5.90;;;16.30;99.90;;;;;;5055906;28;20501;-63
2022/06/07 01:22:02;;;;;;;6.93;6.30;;;16.20;99.90;;;;;;5056108;28;20448;-63
2022/06/07 01:24:29;;;;;;;6.33;5.87;;;16.20;99.90;;;;;;5055847;28;21003;-63
2022/06/07 01:26:55;;;;;;;6.33;5.73;;;16.30;99.90;;;;;;5055931;28;20539;-63
2022/06/07 01:29:22;;;;;;;5.50;5.17;;;16.40;99.90;;;;;;5055958;28;20448;-63
2022/06/07 01:31:49;;;;;;;6.53;6.10;;;16.50;99.90;;;;;;5055709;28;20444;-64
2022/06/07 01:34:16;;;;;;;6.90;6.33;;;16.60;99.90;;;;;;5056005;28;20445;-63
2022/06/07 01:36:42;;;;;;;7.43;5.73;;;16.70;99.90;;;;;;5055806;28;20448;-64
2022/06/07 01:41:57;;;;;;;5.50;5.10;;;16.60;99.90;;;;;;5055595;28;20439;-63
2022/06/07 01:44:25;;;;;;;6.70;6.20;;;;;;;;;;5055418;28;21097;-64
2022/06/07 01:46:52;;;;;;;6.30;5.90;;;;;;;;;;5055645;28;20834;-64
2022/06/07 01:49:19;;;;;;;6.63;6.13;;;;;;;;;;5055517;28;20883;-64
2022/06/07 01:51:46;;;;;;;6.47;6.10;;;;;;;;;;5055463;28;20883;-64
2022/06/07 01:54:15;;;;;;;6.10;5.70;;;;;;;;;;5055357;28;20547;-63
2022/06/07 01:56:42;;;;;;;5.97;5.50;;;;;;;;;;5055253;28;20811;-64
2022/06/07 01:59:09;;;;;;;6.50;5.90;;;;;;;;;;5055391;28;20543;-64
2022/06/07 02:01:36;;;;;;;6.30;5.90;;;;;;;;;;5055362;28;20452;-64
2022/06/07 02:04:04;;;;;;;6.80;6.40;;;;;;;;;;5055247;28;20471;-64
2022/06/07 02:06:31;;;;;;;6.40;5.90;;;;;;;;;;5053976;28;20475;-64
2022/06/07 02:08:58;;;;;;;6.93;6.30;;;;;;;;;;5055166;28;21003;-64
2022/06/07 02:11:27;;;;;;;6.80;6.30;;;;;;;;;;5054910;28;20578;-63
2022/06/07 02:13:54;;;;;;;6.27;5.80;;;;;;;;;;5055425;28;20547;-64
2022/06/07 02:16:22;;;;;;;6.40;6.00;;;;;;;;;;5055021;28;20448;-64
2022/06/07 02:18:49;;;;;;;6.40;6.00;;;;;;;;;;5054950;28;20454;-63
2022/06/07 02:21:17;;;;;;;7.10;6.50;;;;;;;;;;5054803;28;20459;-64
2022/06/07 02:23:44;;;;;;;6.40;6.00;;;;;;;;;;5054668;28;20935;-64
2022/06/07 02:26:13;;;;;;;7.23;6.73;;;;;;;;;;5054673;28;20448;-64
2022/06/07 02:28:44;;;;;;;6.63;6.23;;;;;;;;;;5054798;28;20467;-64
2022/06/07 02:31:12;;;;;;;6.83;6.30;;;;;;;;;;5054730;28;20480;-63
2022/06/07 02:33:41;;;;;;;7.30;6.47;;;;;;;;;;5054543;28;20978;-63
2022/06/07 02:36:09;;;;;;;5.73;5.20;;;;;;;;;;5054578;28;20448;-64
2022/06/07 02:38:37;;;;;;;5.90;5.60;;;;;;;;;;5054359;28;20540;-64
2022/06/07 02:41:05;;;;;;;6.70;6.20;;;;;;;;;;5054623;28;20459;-63
2022/06/07 02:43:32;;;;;;;8.70;6.90;;;;;;;;;;5054366;28;20468;-63
2022/06/07 02:46:00;;;;;;;9.27;6.83;;;;;;;;;;5054554;28;20459;-63
2022/06/07 02:48:27;;;;;;;6.80;6.30;;;;;;;;;;5054339;28;20449;-63
2022/06/07 02:50:54;;;;;;;7.23;6.60;;;;;;;;;;5054063;28;20491;-64
2022/06/07 02:53:21;;;;;;;6.63;6.20;;;;;;;;;;5054343;28;20854;-63
2022/06/07 02:55:48;;;;;;;6.60;6.10;;;;;;;;;;5054271;28;20459;-64
2022/06/07 02:58:15;;;;;;;6.60;6.20;;;;;;;;;;5054227;28;20448;-63
2022/06/07 03:00:41;;;;;;;6.57;6.17;;;;;;;;;;5054104;28;20452;-63
2022/06/07 03:03:10;;;;;;;6.60;6.00;;;;;;;;;;5053983;28;20449;-64
2022/06/07 03:05:37;;;;;;;5.97;5.53;;;;;;;;;;5053874;28;20866;-63
2022/06/07 03:08:04;;;;;;;5.90;5.50;;;;;;;;;;5054045;28;20555;-64
2022/06/07 03:10:31;;;;;;;7.00;6.37;;;;;;;;;;5053956;28;20858;-64
2022/06/07 03:12:58;;;;;;;7.30;6.20;;;;;;;;;;5054010;28;20540;-63
2022/06/07 03:15:25;;;;;;;6.40;5.90;;;;;;;;;;5053848;28;20807;-63
2022/06/07 03:17:52;;;;;;;6.37;5.87;;;;;;;;;;5053451;28;20452;-63
2022/06/07 03:20:20;;;;;;;6.80;6.30;;;;;;;;;;5053562;28;21031;-63
2022/06/07 03:22:47;;;;;;;12.73;5.93;;;;;;;;;;5053612;28;20928;-64
2022/06/07 03:25:14;;;;;;;6.20;5.70;;;;;;;;;;5053689;28;20462;-64
2022/06/07 03:27:41;;;;;;;6.80;6.20;;;;;;;;;;5053570;28;20440;-64
2022/06/07 03:30:10;;;;;;;10.10;7.10;;;;;;;;;;5053417;28;20472;-64
2022/06/07 03:32:38;;;;;;;7.10;6.60;;;;;;;;;;5053350;28;20960;-64
2022/06/07 03:35:05;;;;;;;7.57;6.97;;;;;;;;;;5053327;28;20963;-64
2022/06/07 03:37:34;;;;;;;8.10;7.30;;;;;;;;;;5053515;28;20506;-64
2022/06/07 03:40:00;;;;;;;7.33;6.77;;;;;;;;;;5053635;28;20543;-63
2022/06/07 03:42:27;;;;;;;7.17;6.47;;;;;;;;;;5053442;28;20535;-64
2022/06/07 03:44:54;;;;;;;8.20;7.50;;;;;;;;;;5053228;28;20482;-63
2022/06/07 03:47:22;;;;;;;6.87;6.47;;;;;;;;;;5053161;28;20449;-64
2022/06/07 03:49:49;;;;;;;7.37;6.87;;;;;;;;;;5053241;28;20454;-64
2022/06/07 03:52:16;;;;;;;6.80;6.40;;;;;;;;;;5053354;28;20448;-63
2022/06/07 03:54:45;;;;;;;7.40;6.90;;;;;;;;;;5053467;28;20484;-64
2022/06/07 03:57:13;;;;;;;7.43;6.93;;;;;;;;;;5053102;28;20876;-63
2022/06/07 03:59:40;;;;;;;7.63;7.07;;;;;;;;;;5053009;28;20451;-64
2022/06/07 04:02:09;;;;;;;13.00;8.80;;;;;;;;;;5052943;28;20539;-64
2022/06/07 04:04:36;;;;;;;7.00;6.50;;;;;;;;;;5053024;28;20460;-64
2022/06/07 04:09:50;;;;;;;7.33;6.83;;;;;;;;;;5053227;28;20517;-63
2022/06/07 04:12:18;;;;;;;7.97;7.30;;;;;;;;;;5052691;28;20488;-64
2022/06/07 04:14:45;;;;;;;7.57;7.07;;;;;;;;;;5053060;28;20448;-63
2022/06/07 04:17:13;;;;;;;7.10;6.60;;;;;;;;;;5052936;28;20455;-64
2022/06/07 04:19:41;;;;;;;8.07;7.30;;;;;;;;;;5052868;28;20449;-64
2022/06/07 04:22:08;;;;;;;7.40;6.63;;;;;;;;;;5052947;28;20452;-63
2022/06/07 04:24:35;;;;;;;6.10;5.60;;;;;;;;;;5052716;28;20543;-63
2022/06/07 04:27:03;;;;;;;7.80;7.10;;;;;;;;;;5052648;28;20540;-64
2022/06/07 04:29:30;;;;;;;6.40;6.00;;;;;;;;;;5053308;28;20455;-64
2022/06/07 04:31:57;;;;;;;6.27;5.87;;;;;;;;;;5057153;28;20484;-64
2022/06/07 04:34:24;;;;;;;6.67;6.07;;;;;;;;;;5056930;28;20452;-64
2022/06/07 04:36:51;;;;;;;6.10;5.60;;;;;;;;;;5056790;28;20455;-64
2022/06/07 04:39:18;;;;;;;6.07;5.57;;;;;;;;;;5056569;28;20543;-63
2022/06/07 04:41:45;;;;;;;7.30;5.70;;;;;;;;;;5056838;28;21031;-64
2022/06/07 04:44:13;;;;;;;5.70;5.03;;;;;;;;;;5056618;28;20482;-64
2022/06/07 04:46:40;;;;;;;4.93;4.53;;;;;;;;;;5056626;28;20455;-64
2022/06/07 04:49:07;;;;;;;6.10;5.60;;;;;;;;;;5056562;28;20448;-64
2022/06/07 04:51:35;;;;;;;5.80;5.40;;;;;;;;;;5056299;28;20583;-64
2022/06/07 04:54:02;;;;;;;4.30;4.10;;;;;;;;;;5056474;28;20452;-64
2022/06/07 04:56:30;;;;;;;6.07;5.43;;;;;;;;;;5056545;28;20542;-64
2022/06/07 04:58:58;;;;;;;6.07;5.53;;;;;;;;;;5056361;28;20535;-64
2022/06/07 05:01:27;;;;;;;5.33;4.97;;;;;;;;;;5056327;28;20539;-64
2022/06/07 05:03:55;;;;;;;5.37;4.97;;;;;;;;;;5056205;28;20448;-64
2022/06/07 05:06:24;;;;;;;5.37;4.87;;;;;;;;;;5056087;28;20455;-64
2022/06/07 05:08:51;;;;;;;4.63;4.33;;;;;;;;;;5056304;28;20447;-64
2022/06/07 05:11:18;;;;;;;5.20;4.70;;;;;;;;;;5056116;28;20475;-64
2022/06/07 05:13:46;;;;;;;5.07;4.77;;;;;;;;;;5056170;28;20459;-64
2022/06/07 05:16:12;;;;;;;5.40;5.00;;;;;;;;;;5055895;28;20803;-64
2022/06/07 05:18:41;;;;;;;4.90;4.50;;;;;;;;;;5055951;28;20448;-64
2022/06/07 05:21:09;;;;;;;4.00;3.70;;;;;;;;;;5055877;28;20495;-64
2022/06/07 05:23:36;;;;;;;4.97;4.57;;;;;;;;;;5055984;28;20440;-64
2022/06/07 05:26:07;;;;;;;4.60;4.33;;;;;;;;;;5055931;28;20448;-64
2022/06/07 05:28:34;;;;;;;6.43;4.40;;;;;;;;;;5055832;28;20448;-64
2022/06/07 05:31:01;;;;;;;4.50;4.20;;;;;;;;;;5055639;28;21077;-64
2022/06/07 05:33:28;;;;;;;4.87;4.57;;;;;;;;;;5055576;28;20528;-64
2022/06/07 05:35:58;;;;;;;4.97;4.33;;;;;;;;;;5055800;28;20448;-64
2022/06/07 05:38:25;;;;;;;4.93;4.60;;;;;;;;;;5055445;28;20993;-64
2022/06/07 05:40:52;;;;;;;4.70;4.20;;;;;;;;;;5055312;28;20966;-64
2022/06/07 05:43:19;;;;;;;4.67;4.37;;;;;;;;;;5055397;28;20448;-64
2022/06/07 05:45:48;;;;;;;4.60;4.20;;;;;;;;;;5055331;28;20978;-64
2022/06/07 05:48:15;;;;;;;3.93;3.73;;;;;;;;;;5055407;28;20539;-64
2022/06/07 05:50:43;;;;;;;4.17;3.90;;;;;;;;;;5055460;28;20451;-64
2022/06/07 05:53:12;;;;;;;4.50;3.87;;;;;;;;;;5055440;28;20455;-64
2022/06/07 05:55:40;;;;;;;3.70;3.40;;;;;;;;;;5055277;28;20451;-64
2022/06/07 05:58:07;;;;;;;3.43;3.23;;;;;;;;;;5055122;28;20454;-64
2022/06/07 06:00:35;;;;;;;3.43;3.07;;;;;;;;;;5055038;28;20450;-64
2022/06/07 06:03:02;;;;;;;7.00;3.40;;;;;;;;;;5055081;28;20452;-64
2022/06/07 06:05:29;;;;;;;3.33;3.03;;;;;;;;;;5055198;28;20543;-64
2022/06/07 06:10:41;;;;;;;3.43;3.13;;;;;;;;;;5055175;28;20994;-64
2022/06/07 06:13:08;;;;;;;3.40;2.70;;;;;;;;;;5054856;28;20547;-64
2022/06/07 06:15:36;;;;;;;2.80;2.60;;;;;;;;;;5054860;28;20962;-64
2022/06/07 06:18:03;;;;;;;2.73;2.40;;;;;;;;;;5055007;28;20471;-64
2022/06/07 06:20:30;;;;;;;2.50;2.30;;;;;;;;;;5054859;28;20539;-64
2022/06/07 06:22:57;;;;;;;2.90;2.40;;;;;;;;;;5054828;28;20839;-64
2022/06/07 06:25:24;;;;;;;4.33;2.60;;;;;;;;;;5054535;28;20820;-64
2022/06/07 06:27:53;;;;;;;2.47;2.33;;;;;;;;;;5054589;28;20480;-64
2022/06/07 06:30:20;;;;;;;2.90;2.70;;;;;;;;;;5054684;28;20448;-64
2022/06/07 06:32:47;;;;;;;4.63;2.40;;;;;;;;;;5054610;28;20488;-64
2022/06/07 06:35:14;;;;;;;2.23;2.13;;;;;;;;;;5054471;28;20535;-64
2022/06/07 06:37:41;;;;;;;2.43;2.23;;;;;;;;;;5054455;28;20452;-64
2022/06/07 06:40:09;;;;;;;2.27;1.83;;;;;;;;;;5054359;28;20452;-64
2022/06/07 06:42:36;;;;;;;1.80;1.70;;;;;;;;;;5054241;28;20499;-64
2022/06/07 06:45:04;;;;;;;1.60;1.50;;;;;;;;;;5054291;28;20580;-64
2022/06/07 06:47:31;;;;;;;2.60;1.67;;;;;;;;;;5054315;28;20867;-64
2022/06/07 06:49:58;;;;;;;2.07;1.97;;;;;;;;;;5054160;28;20479;-64
2022/06/07 06:52:25;;;;;;;6.97;2.90;;;;;;;;;;5053412;28;20558;-64
2022/06/07 06:54:52;;;;;;;3.60;2.70;;;;;;;;;;5053952;28;20547;-64
2022/06/07 06:57:19;;;;;;;1.80;1.70;;;;;;;;;;5054273;28;20878;-64
2022/06/07 06:59:46;;;;;;;1.83;1.73;;;;;;;;;;5053982;28;20448;-64
2022/06/07 07:02:14;;;;;;;1.80;1.70;;;;;;;;;;5054030;28;20543;-64
2022/06/07 07:04:41;;;;;;;2.07;1.87;;;;;;;;;;5053905;28;20993;-64
2022/06/07 07:07:09;;;;;;;1.80;1.70;;;;;;;;;;5054052;28;20531;-64
2022/06/07 07:09:36;;;;;;;1.80;1.70;;;;;;;;;;5054006;28;20448;-64
2022/06/07 07:12:04;;;;;;;2.30;2.00;;;;;;;;;;5053688;28;20508;-64
2022/06/07 07:14:31;;;;;;;2.47;1.93;;;;;;;;;;5053650;28;20452;-64
2022/06/07 07:16:58;;;;;;;2.30;2.00;;;;;;;;;;5053522;28;20498;-64
2022/06/07 07:19:26;;;;;;;3.43;1.80;;;;;;;;;;5053491;28;20456;-64
2022/06/07 07:21:53;;;;;;;1.90;1.60;;;;;;;;;;5053237;28;20543;-64
2022/06/07 07:24:22;;;;;;;2.60;1.70;;;;;;;;;;5051729;28;20448;-64
2022/06/07 07:26:49;;;;;;;1.70;1.60;;;;;;;;;;5053810;28;20548;-64
2022/06/07 07:29:17;;;;;;;2.70;2.17;;;;;;;;;;5053244;28;20448;-64
2022/06/07 07:31:45;;;;;;;2.90;1.77;;;;;;;;;;5053220;28;20479;-64
2022/06/07 07:34:14;;;;;;;7.80;2.20;;;;;;;;;;5053176;28;20448;-64
2022/06/07 07:39:58;;;;;;;1.97;1.87;;;;;;;;;;5053366;28;20438;-63
2022/06/07 07:42:24;;;;;;;2.30;1.87;;;;;;;;;;5055218;28;20452;-57
2022/06/07 07:44:51;;;;;;;2.00;1.73;;;;;;;;;;5055722;28;20810;-53
2022/06/07 07:47:18;;;;;;;3.23;1.70;;;;;;;;;;5052708;28;20459;-56
2022/06/07 07:49:45;;;;;;;3.53;2.00;;;;;;;;;;5051491;28;20506;-56
2022/06/07 07:52:18;;;;;;;1.73;1.63;;;;;;;;;;5051570;28;20484;-58
2022/06/07 07:54:45;;;;;;;3.47;2.30;;;;;;;;;;5051671;28;20535;-59
2022/06/07 07:57:13;;;;;;;1.80;1.70;;;;;;;;;;5052999;28;20797;-71
2022/06/07 07:59:40;;;;;;;2.33;1.80;;;;;;;;;;5052622;28;20449;-67
2022/06/07 08:02:08;;;;;;;7.10;2.10;;;;;;;;;;5037338;28;20457;-64
2022/06/07 08:04:35;;;;;;;3.17;1.80;;;;;;;;;;5049327;28;20458;-66
2022/06/07 08:07:02;;;;;;;2.63;1.70;;;;;;;;;;5052291;28;20535;-61
2022/06/07 08:09:29;;;;;;;1.63;1.53;;;;;;;;;;5051259;28;20547;-61
2022/06/07 08:11:56;;;;;;;2.33;2.10;;;;;;;;;;5052866;28;20471;-62
2022/06/07 08:14:24;;;;;;;3.00;2.00;;;;;;;;;;5051583;28;20966;-57
2022/06/07 08:16:54;;;;;;;1.83;1.73;;;;;;;;;;5047151;28;20542;-56
2022/06/07 08:19:20;;;;;;;3.00;2.00;;;;;;;;;;5047799;28;20452;-56
2022/06/07 08:21:47;;;;;;;2.90;1.80;;;;;;;;;;5053280;28;20879;-62
2022/06/07 08:24:14;;;;;;;2.17;1.97;;;;;;;;;;5055793;28;20453;-60
2022/06/07 08:26:42;;;;;;;1.77;1.67;;;;;;;;;;5052705;28;20445;-60
2022/06/07 08:29:09;;;;;;;2.10;1.60;;;;;;;;;;5053189;28;20445;-60
2022/06/07 08:31:37;;;;;;;1.57;1.47;;;;;;;;;;5052318;28;20464;-60
2022/06/07 08:39:34;;;;;;;2.03;1.13;;;;;;;;;;5052003;28;20458;-60
2022/06/07 08:42:02;;;;;;;7.30;1.83;;;;;;;;;;5046638;28;20477;-60
2022/06/07 08:44:31;;;;;;;1.63;1.37;;;;;;;;;;5031917;28;20477;-62
2022/06/07 08:47:03;;;;;;;2.50;1.90;;;;;;;;;;5051067;28;20976;-59
2022/06/07 08:49:30;;;;;;;1.90;1.30;;;;;;;;;;5051684;28;20761;-60
2022/06/07 08:52:00;;;;;;;1.73;1.50;;;;;;;;;;5036611;28;21007;-60
2022/06/07 08:54:30;;;;;;;1.77;1.30;;;;;;;;;;5032344;28;20452;-60
2022/06/07 08:57:02;;;;;;;2.60;1.60;;;;;;;;;;5032589;28;20453;-66
2022/06/07 08:59:29;;;;;;;1.87;1.27;;;;;;;;;;5050510;28;20768;-64
2022/06/07 09:02:00;;;;;;;4.83;1.50;;;;;;;;;;5052920;28;20466;-62
2022/06/07 09:04:30;;;;;;;1.53;1.43;;;;;;;;;;5052356;28;20476;-58
2022/06/07 09:06:58;;;;;;;1.73;1.33;;;;;;;;;;5052258;28;20452;-56
2022/06/07 09:12:09;;;;;;;2.40;1.63;;;;;;;;;;5052103;28;20866;-60
2022/06/07 09:12:15;;;;;;;1.30;1.20;;;;;;;;;;5052034;28;20529;-60
2022/06/07 09:14:44;;;;;;;1.97;1.30;;;;;;;;;;5051912;28;20532;-62
2022/06/07 09:17:13;;;;;;;1.37;1.20;;;;;;;;;;5054958;28;20939;-60
2022/06/07 09:19:41;;;;;;;1.50;1.40;;;;;;;;;;5055510;28;20544;-65
2022/06/07 09:22:15;;;;;;;1.90;1.80;;;;;;;;;;5055437;28;20535;-63
2022/06/07 09:24:43;;;;;;;3.00;1.23;;;;;;;;;;5055922;28;20455;-66
2022/06/07 09:27:15;;;;;;;1.17;1.07;;;;;;;;;;5055818;28;20483;-64
2022/06/07 09:29:42;;;;;;;3.25;1.30;;;;;;;;;;5056585;28;21001;-63
2022/06/07 09:32:10;;;;;;;2.40;1.37;;;;;;;;;;5055276;28;20752;-59
2022/06/07 09:34:38;;;;;;;2.23;1.30;;;;;;;;;;5054728;28;20459;-59
2022/06/07 09:37:08;;;;;;;1.60;1.50;;;;;;;;;;5056504;28;20463;-60
2022/06/07 09:39:37;;;;;;;2.40;1.20;;;;;;;;;;5054905;28;20535;-64
2022/06/07 09:42:11;;;;;;;3.70;1.10;;;;;;;;;;5054821;28;20547;-60
2022/06/07 09:44:39;;;;;;;1.50;1.20;;;;;;;;;;5054563;28;20927;-61
2022/06/07 09:47:11;;;;;;;1.30;1.10;;;;;;;;;;5055241;28;20448;-59
2022/06/07 09:49:40;;;;;;;1.50;1.40;;;;;;;;;;5055967;28;20543;-59
2022/06/07 09:52:13;;;;;;;3.93;1.50;;;;;;;;;;5066405;28;20524;-59
2022/06/07 09:54:41;;;;;;;1.50;1.10;;;;;;;;;;5064905;28;21040;-60
2022/06/07 09:57:11;;;;;;;1.63;1.40;;;;;;;;;;5050516;28;20468;-61
2022/06/07 09:59:54;;;;;;;2.80;1.10;;;;;;;;;;5044840;28;20451;-61
2022/06/07 10:02:36;;;;;;;2.50;1.70;;;;;;;;;;5055136;28;20466;-66
2022/06/07 10:05:09;;;;;;;1.23;1.13;;;;;;;;;;5054837;28;20448;-60
2022/06/07 10:07:46;;;;;;;1.60;1.20;;;;;;;;;;5057207;28;21015;-60
2022/06/07 10:10:16;;;;;;;2.03;1.30;;;;;;;;;;5054545;28;20474;-59
2022/06/07 10:12:47;;;;;;;1.20;1.10;;;;;;;;;;5054954;28;20516;-58
2022/06/07 10:15:21;;;;;;;1.40;1.10;;;;;;;;;;5054785;28;20452;-58
2022/06/07 10:17:55;;;;;;;1.73;1.20;;;;;;;;;;5054788;28;20860;-57
2022/06/07 10:20:24;;;;;;;3.20;1.60;;;;;;;;;;5064278;28;20450;-61
2022/06/07 10:23:01;;;;;;;1.83;1.10;;;;;;;;;;5045787;28;20456;-58
2022/06/07 10:25:30;;;;;;;1.60;1.33;;;;;;;;;;5058503;28;20799;-59
2022/06/07 10:28:03;;;;;;;1.87;1.40;;;;;;;;;;5054159;28;20456;-60
2022/06/07 10:30:33;;;;;;;2.13;1.20;;;;;;;;;;5054679;28;20539;-60
2022/06/07 10:33:21;;;;;;;1.90;1.30;;;;;;;;;;5034304;28;20485;-58
2022/06/07 10:35:51;;;;;;;4.73;1.17;;;;;;;;;;5054234;28;20463;-61
2022/06/07 10:38:30;;;;;;;1.50;1.30;;;;;;;;;;5053256;28;20897;-59
2022/06/07 10:41:04;;;;;;;1.73;1.53;;;;;;;;;;5052860;28;20193;-61
2022/06/07 10:43:32;;;;;;;3.63;1.30;;;;;;;;;;5053084;28;21074;-63
2022/06/07 10:46:00;;;;;;;1.73;1.10;;;;;;;;;;5057272;28;21746;-61
2022/06/07 10:48:32;;;;;;;1.33;1.23;;;;;;;;;;5049925;28;20530;-62
2022/06/07 10:51:03;;;;;;;5.03;1.53;;;;;;;;;;5056496;28;20462;-60
2022/06/07 10:53:32;;;;;;;1.47;1.37;;;;;;;;;;5043227;28;20567;-65
2022/06/07 10:56:02;;;;;;;2.10;1.90;;;;;;;;;;5056523;28;21042;-63
2022/06/07 10:58:32;;;;;;;1.90;1.73;;;;;;;;;;5053866;28;20502;-61
2022/06/07 11:01:01;;;;;;;2.90;1.58;;;;;;;;;;5055481;28;20450;-61
2022/06/07 11:03:32;;;;;;;2.33;1.20;;;;;;;;;;5065892;28;20188;-62
2022/06/07 11:11:36;;;;;;;1.97;1.20;;;;;;;;;;5044856;28;20435;-63
2022/06/07 11:14:20;;;;;;;3.93;1.53;;;;;;;;;;5053790;28;20480;-63
2022/06/07 11:16:54;;;;;;;1.50;1.23;;;;;;;;;;5047123;28;20459;-63
2022/06/07 11:19:21;;;;;;;1.50;1.20;;;;;;;;;;5054026;28;20456;-63
2022/06/07 11:21:49;;;;;;;2.07;1.47;;;;;;;;;;5053384;28;20535;-60
2022/06/07 11:24:20;;;;;;;2.10;1.20;;;;;;;;;;5033244;28;20884;-61
2022/06/07 11:27:16;;;;;;;2.50;1.40;;;;;;;;;;5055360;28;20189;-60
2022/06/07 11:29:43;;;;;;;1.17;1.07;;;;;;;;;;5033422;28;20504;-60
2022/06/07 11:32:29;;;;;;;1.80;1.10;;;;;;;;;;5043763;28;20447;-60
2022/06/07 11:34:56;;;;;;;1.70;1.30;;;;;;;;;;5053573;28;20451;-60
2022/06/07 11:37:33;;;;;;;2.80;1.50;;;;;;;;;;5052383;28;20812;-60
2022/06/07 11:40:02;;;;;;;1.30;1.10;;;;;;;;;;5061550;28;20181;-60
2022/06/07 11:42:31;;;;;;;2.13;1.30;;;;;;;;;;5073190;28;20447;-60
2022/06/07 11:44:59;;;;;;;1.97;1.63;;;;;;;;;;5057662;28;20828;-61
2022/06/07 11:47:30;;;;;;;2.38;1.42;;;;;;;;;;5052180;28;20884;-60
2022/06/07 11:50:11;;;;;;;2.47;1.20;;;;;;;;;;5053198;28;20198;-60
2022/06/07 11:52:54;;;;;;;2.43;1.20;;;;;;;;;;5060531;28;20483;-57
2022/06/07 11:55:24;;;;;;;3.80;1.27;;;;;;;;;;5073202;28;20451;-56
2022/06/07 11:58:03;;;;;;;2.20;1.20;;;;;;;;;;5072381;28;20450;-56
2022/06/07 12:00:49;;;;;;;3.60;1.50;;;;;;;;;;5060119;28;20513;-59
2022/06/07 12:03:30;;;;;;;1.43;1.33;;;;;;;;;;5052317;28;20448;-59
2022/06/07 12:06:05;;;;;;;1.30;1.20;;;;;;;;;;5055043;28;20451;-64
2022/06/07 12:08:44;;;;;;;1.43;1.33;;;;;;;;;;5056143;28;20452;-60
2022/06/07 12:11:23;;;;;;;1.83;1.70;;;;;;;;;;5052706;28;20837;-59
2022/06/07 12:13:53;;;;;;;1.80;1.37;;;;;;;;;;5040427;28;20484;-58
2022/06/07 12:16:24;;;;;;;2.73;1.63;;;;;;;;;;5037948;28;20868;-60
2022/06/07 12:18:52;;;;;;;1.60;1.50;;;;;;;;;;5049371;28;20460;-56
2022/06/07 12:21:21;;;;;;;5.10;1.60;;;;;;;;;;5056010;28;20880;-58
2022/06/07 12:23:49;;;;;;;2.30;1.60;;;;;;;;;;5061634;28;20548;-59
2022/06/07 12:26:20;;;;;;;1.73;1.50;;;;;;;;;;5053984;28;20452;-58
2022/06/07 12:28:51;;;;;;;1.73;1.63;;;;;;;;;;5048614;28;20483;-60
2022/06/07 12:31:24;;;;;;;2.30;1.63;;;;;;;;;;5045361;28;20529;-55
2022/06/07 12:33:52;;;;;;;3.47;1.53;;;;;;;;;;5057174;28;20556;-60
2022/06/07 12:36:22;;;;;;;3.20;1.77;;;;;;;;;;5052911;28;20459;-60
2022/06/07 12:38:50;;;;;;;1.57;1.47;;;;;;;;;;5054487;28;20539;-59
2022/06/07 12:41:19;;;;;;;1.53;1.43;;;;;;;;;;5040611;28;20448;-65
2022/06/07 12:43:50;;;;;;;1.60;1.50;;;;;;;;;;5052128;28;21758;-65
2022/06/07 12:46:20;;;;;;;2.97;1.77;;;;;;;;;;5054991;28;20453;-59
2022/06/07 12:48:47;;;;;;;1.67;1.57;;;;;;;;;;5061214;28;20448;-60
2022/06/07 12:51:22;;;;;;;1.77;1.67;;;;;;;;;;5056172;28;20452;-61
2022/06/07 12:53:50;;;;;;;2.13;1.70;;;;;;;;;;5055814;28;20480;-61
2022/06/07 12:56:19;;;;;;;2.07;1.40;;;;;;;;;;5056432;28;20879;-61
2022/06/07 12:58:49;;;;;;;3.67;1.80;;;;;;;;;;5056244;28;20456;-61
2022/06/07 13:01:24;;;;;;;1.77;1.67;;;;;;;;;;5056401;28;20951;-61
2022/06/07 13:03:54;;;;;;;2.33;1.33;;;;;;;;;;5056095;28;20466;-61
2022/06/07 13:06:21;;;;;;;1.53;1.33;;;;;;;;;;5056207;28;20459;-61
2022/06/07 13:08:57;;;;;;;2.80;1.33;;;;;;;;;;5055971;28;20484;-60
2022/06/07 13:11:24;;;;;;;6.20;1.90;;;;;;;;;;5055877;28;20443;-61
2022/06/07 13:13:53;;;;;;;2.20;1.67;;;;;;;;;;5055862;28;20490;-61
2022/06/07 13:16:33;;;;;;;3.00;2.00;;;;;;;;;;5055640;28;20967;-60
2022/06/07 13:19:01;;;;;;;3.80;1.80;;;;;;;;;;5055643;28;20451;-60
2022/06/07 13:21:31;;;;;;;1.83;1.70;;;;;;;;;;5055735;28;20854;-60
2022/06/07 13:23:59;;;;;;;2.50;2.10;;;;;;;;;;5056049;28;21028;-60
2022/06/07 13:26:29;;;;;;;3.00;1.90;;;;;;;;;;5055891;28;21046;-60
2022/06/07 13:29:09;;;;;;;2.17;1.50;;;;;;;;;;5055849;28;20534;-60
2022/06/07 13:31:45;;;;;;;9.07;2.23;;;;;;;;;;5055898;28;20452;-60
2022/06/07 13:34:16;;;;;;;1.83;1.70;;;;;;;;;;5055507;28;20479;-60
2022/06/07 13:36:43;;;;;;;1.93;1.60;;;;;;;;;;5055630;28;20447;-60
2022/06/07 13:39:21;;;;;;;2.20;2.00;;;;;;;;;;5055704;28;20440;-61
2022/06/07 13:41:49;;;;;;;2.57;1.67;;;;;;;;;;5055716;28;20487;-60
2022/06/07 13:44:32;;;;;;;3.70;1.93;;;;;;;;;;5055391;28;20519;-60
2022/06/07 13:47:00;;;;;;;3.20;2.10;;;;;;;;;;5055534;28;21031;-60
2022/06/07 13:55:15;;;;;;;2.23;1.70;;;;;;;;;;5055143;28;20990;-60
2022/06/07 13:57:42;;;;;;;1.70;1.60;;;;;;;;;;5055323;28;20543;-60
2022/06/07 14:00:14;;;;;;;3.50;1.47;;;;;;;;;;5055156;28;20448;-60
2022/06/07 14:02:43;;;;;;;3.27;2.03;;;;;;;;;;5055111;28;20862;-60
2022/06/07 14:05:14;;;;;;;4.07;1.57;;;;;;;;;;5054863;28;20455;-60
2022/06/07 14:07:41;;;;;;;4.13;2.10;;;;;;;;;;5055002;28;20459;-60
2022/06/07 14:10:08;;;;;;;2.90;1.57;;;;;;;;;;5055076;28;20455;-61
2022/06/07 14:12:35;;;;;;;1.80;1.70;;;;;;;;;;5055348;28;20454;-60
2022/06/07 14:15:02;;;;;;;3.70;1.20;;;;;;;;;;5054976;28;20488;-60
2022/06/07 14:17:30;;;;;;;3.30;1.37;;;;;;;;;;5054919;28;20539;-60
2022/06/07 14:19:57;;;;;;;2.50;1.30;;;;;;;;;;5054815;28;20924;-61
2022/06/07 14:22:25;;;;;;;1.33;1.10;;;;;;;;;;5055123;28;20497;-61
2022/06/07 14:24:53;;;;;;;1.13;1.10;;;;;;;;;;5055145;28;20484;-61
2022/06/07 14:27:26;;;;;;;3.00;1.27;;;;;;;;;;5054849;28;20452;-61
2022/06/07 14:29:54;;;;;;;5.70;1.20;;;;;;;;;;5054858;28;20452;-61
2022/06/07 14:32:22;;;;;;;1.20;1.00;;;;;;;;;;5054666;28;20816;-61
2022/06/07 14:34:50;;;;;;;2.50;1.00;;;;;;;;;;5054460;28;20615;-59
2022/06/07 14:37:19;;;;;;;1.50;0.90;;;;;;;;;;5054714;28;20452;-59
2022/06/07 14:39:46;;;;;;;3.43;1.00;;;;;;;;;;5054612;28;20456;-60
2022/06/07 14:42:14;;;;;;;1.30;1.20;;;;;;;;;;5054601;28;20879;-60
2022/06/07 14:44:42;;;;;;;1.87;1.17;;;;;;;;;;5054461;28;20472;-60
2022/06/07 14:47:15;;;;;;;1.43;1.10;;;;;;;;;;5054404;28;20455;-60
2022/06/07 14:49:42;;;;;;;1.53;1.00;;;;;;;;;;5054513;28;20803;-60
2022/06/07 14:52:15;;;;;;;1.40;1.10;;;;;;;;;;5054652;28;20448;-60
2022/06/07 14:54:42;;;;;;;1.10;1.00;;;;;;;;;;5054227;28;20483;-60
2022/06/07 14:57:15;;;;;;;1.50;1.30;;;;;;;;;;5054195;28;20452;-59
2022/06/07 14:59:43;;;;;;;1.43;0.80;;;;;;;;;;5054266;28;20452;-60
2022/06/07 15:02:13;;;;;;;0.80;0.80;;;;;;;;;;5054264;28;20487;-60
2022/06/07 15:04:41;;;;;;;1.20;0.90;;;;;;;;;;5054226;28;20453;-60
2022/06/07 15:07:17;;;;;;;1.00;0.90;;;;;;;;;;5054104;28;20528;-60
2022/06/07 15:09:46;;;;;;;3.83;1.07;;;;;;;;;;5054180;28;20458;-60
2022/06/07 15:12:14;;;;;;;1.57;1.00;;;;;;;;;;5053596;28;20804;-60